createdAt,value
2019-05-01T00:00:50.862Z,78.09
2019-05-01T00:03:28.598Z,78.04
2019-05-01T00:05:59.749Z,77.88
2019-05-01T00:08:32.130Z,77.64
2019-05-01T00:11:01.718Z,78.40
2019-05-01T00:13:32.834Z,78.63
2019-05-01T00:16:02.294Z,78.63
2019-05-01T00:18:31.854Z,78.83
2019-05-01T00:21:01.673Z,78.83
2019-05-01T00:23:31.173Z,78.82
2019-05-01T00:26:00.696Z,78.90
2019-05-01T00:28:30.266Z,78.90
2019-05-01T00:30:59.862Z,78.99
2019-05-01T00:33:29.402Z,79.08
2019-05-01T00:35:58.881Z,78.78
2019-05-01T00:38:28.401Z,78.99
2019-05-01T00:40:57.885Z,78.77
2019-05-01T00:43:27.353Z,79.44
2019-05-01T00:45:56.828Z,79.44
2019-05-01T00:48:26.350Z,80.24
2019-05-01T00:50:55.919Z,80.24
2019-05-01T00:53:25.389Z,79.97
2019-05-01T00:56:11.499Z,79.78
2019-05-01T00:59:00.959Z,79.83
2019-05-01T01:01:32.023Z,79.75
2019-05-01T01:04:01.526Z,80.14
2019-05-01T01:06:31.045Z,80.14
2019-05-01T01:09:00.655Z,80.15
2019-05-01T01:11:31.718Z,80.08
2019-05-01T01:14:01.176Z,79.92
2019-05-01T01:16:30.697Z,79.84
2019-05-01T01:19:00.119Z,79.67
2019-05-01T01:21:29.561Z,80.13
2019-05-01T01:23:59.328Z,80.04
2019-05-01T01:26:29.027Z,80.34
2019-05-01T01:28:58.593Z,80.04
2019-05-01T01:31:28.122Z,79.73
2019-05-01T01:33:58.687Z,79.60
2019-05-01T01:36:28.133Z,79.68
2019-05-01T01:38:57.719Z,79.77
2019-05-01T01:41:27.285Z,79.90
2019-05-01T01:44:01.247Z,79.63
2019-05-01T01:46:32.488Z,79.80
2019-05-01T01:49:02.061Z,80.07
2019-05-01T01:51:31.756Z,80.29
2019-05-01T01:54:02.396Z,80.34
2019-05-01T01:56:32.881Z,80.45
2019-05-01T01:59:02.636Z,80.36
2019-05-01T02:01:42.902Z,80.49
2019-05-01T02:04:20.628Z,80.26
2019-05-01T02:06:50.749Z,80.41
2019-05-01T02:09:20.280Z,80.47
2019-05-01T02:11:49.885Z,80.27
2019-05-01T02:14:19.368Z,80.82
2019-05-01T02:16:49.962Z,80.88
2019-05-01T02:19:19.380Z,80.74
2019-05-01T02:21:48.975Z,80.56
2019-05-01T02:24:18.475Z,80.35
2019-05-01T02:26:52.588Z,80.55
2019-05-01T02:29:27.322Z,80.14
2019-05-01T02:31:58.399Z,80.13
2019-05-01T02:34:29.269Z,79.92
2019-05-01T02:37:03.953Z,80.26
2019-05-01T02:39:35.515Z,80.57
2019-05-01T02:42:06.410Z,80.46
2019-05-01T02:44:42.031Z,80.29
2019-05-01T02:47:14.545Z,80.30
2019-05-01T02:49:52.765Z,80.07
2019-05-01T02:52:25.643Z,80.14
2019-05-01T02:54:58.329Z,80.02
2019-05-01T02:57:28.587Z,80.54
2019-05-01T02:59:59.915Z,80.56
2019-05-01T03:02:30.567Z,80.55
2019-05-01T03:05:01.156Z,80.87
2019-05-01T03:07:34.256Z,80.81
2019-05-01T03:10:08.942Z,80.76
2019-05-01T03:12:39.335Z,80.94
2019-05-01T03:15:09.893Z,81.60
2019-05-01T03:17:47.590Z,81.52
2019-05-01T03:20:35.424Z,81.55
2019-05-01T03:23:16.199Z,81.12
2019-05-01T03:25:45.859Z,81.32
2019-05-01T03:28:15.442Z,81.35
2019-05-01T03:30:45.038Z,81.42
2019-05-01T03:33:14.551Z,81.67
2019-05-01T03:35:44.411Z,81.55
2019-05-01T03:38:14.200Z,81.49
2019-05-01T03:40:43.748Z,81.70
2019-05-01T03:43:13.627Z,81.75
2019-05-01T03:45:43.903Z,81.76
2019-05-01T03:48:13.697Z,81.60
2019-05-01T03:50:46.465Z,81.49
2019-05-01T03:53:14.676Z,81.51
2019-05-01T03:55:44.169Z,81.27
2019-05-01T03:58:14.241Z,81.32
2019-05-01T04:01:01.896Z,81.43
2019-05-01T04:03:45.337Z,81.54
2019-05-01T04:06:14.929Z,81.75
2019-05-01T04:08:44.947Z,81.40
2019-05-01T04:11:14.718Z,81.46
2019-05-01T04:13:44.437Z,81.45
2019-05-01T04:16:14.680Z,81.21
2019-05-01T04:18:44.349Z,81.52
2019-05-01T04:21:13.836Z,81.30
2019-05-01T04:23:43.611Z,81.87
2019-05-01T04:26:13.190Z,81.71
2019-05-01T04:28:50.534Z,81.46
2019-05-01T04:31:32.341Z,81.54
2019-05-01T04:34:06.228Z,81.29
2019-05-01T04:36:47.918Z,81.05
2019-05-01T04:39:17.636Z,81.07
2019-05-01T04:41:47.424Z,80.55
2019-05-01T04:44:17.698Z,80.54
2019-05-01T04:46:47.264Z,80.27
2019-05-01T04:49:18.177Z,80.04
2019-05-01T04:51:48.080Z,80.16
2019-05-01T04:54:17.678Z,79.80
2019-05-01T04:56:48.050Z,80.10
2019-05-01T04:59:17.710Z,79.77
2019-05-01T05:02:02.044Z,79.97
2019-05-01T05:04:32.003Z,79.83
2019-05-01T05:07:01.566Z,79.83
2019-05-01T05:09:45.413Z,79.27
2019-05-01T05:12:28.467Z,78.67
2019-05-01T05:15:00.231Z,78.50
2019-05-01T05:17:29.926Z,78.98
2019-05-01T05:19:59.700Z,79.39
2019-05-01T05:22:30.359Z,79.25
2019-05-01T05:25:00.041Z,79.04
2019-05-01T05:27:30.219Z,78.84
2019-05-01T05:29:59.972Z,79.09
2019-05-01T05:32:30.225Z,78.63
2019-05-01T05:35:06.467Z,78.05
2019-05-01T05:37:42.521Z,78.12
2019-05-01T05:40:12.170Z,77.87
2019-05-01T05:42:41.701Z,78.00
2019-05-01T05:45:11.295Z,77.29
2019-05-01T05:47:40.869Z,77.40
2019-05-01T05:50:12.099Z,77.42
2019-05-01T05:52:53.813Z,77.12
2019-05-01T05:55:39.123Z,76.41
2019-05-01T05:58:13.259Z,76.30
2019-05-01T06:00:46.084Z,76.56
2019-05-01T06:03:35.886Z,76.72
2019-05-01T06:06:14.713Z,76.41
2019-05-01T06:08:46.739Z,76.62
2019-05-01T06:11:36.985Z,76.28
2019-05-01T06:14:13.310Z,76.37
2019-05-01T06:16:56.351Z,76.55
2019-05-01T06:19:39.990Z,76.19
2019-05-01T06:22:21.316Z,76.04
2019-05-01T06:24:58.497Z,76.03
2019-05-01T06:27:29.158Z,76.22
2019-05-01T06:30:00.960Z,76.22
2019-05-01T06:32:33.581Z,76.06
2019-05-01T06:35:03.190Z,75.93
2019-05-01T06:37:51.209Z,76.59
2019-05-01T06:40:23.602Z,76.66
2019-05-01T06:42:53.416Z,75.27
2019-05-01T06:45:24.558Z,74.77
2019-05-01T06:47:58.707Z,74.96
2019-05-01T06:50:37.115Z,74.80
2019-05-01T06:53:06.170Z,74.83
2019-05-01T06:55:36.602Z,74.07
2019-05-01T06:58:06.706Z,74.11
2019-05-01T07:00:39.109Z,74.10
2019-05-01T07:03:11.545Z,73.01
2019-05-01T07:05:44.463Z,72.87
2019-05-01T07:08:23.985Z,72.52
2019-05-01T07:10:45.909Z,72.41
2019-05-01T07:13:15.782Z,72.09
2019-05-01T07:15:45.681Z,71.79
2019-05-01T07:18:18.765Z,71.65
2019-05-01T07:20:51.890Z,70.43
2019-05-01T07:23:22.872Z,70.38
2019-05-01T07:25:52.597Z,70.21
2019-05-01T07:28:23.094Z,69.38
2019-05-01T07:30:55.107Z,68.47
2019-05-01T07:33:25.591Z,68.50
2019-05-01T07:35:55.155Z,68.05
2019-05-01T07:38:24.749Z,67.48
2019-05-01T07:40:54.579Z,68.22
2019-05-01T07:43:42.485Z,68.58
2019-05-01T07:46:18.229Z,67.77
2019-05-01T07:48:45.943Z,67.94
2019-05-01T07:51:15.607Z,67.25
2019-05-01T07:53:45.603Z,67.21
2019-05-01T07:56:17.252Z,66.67
2019-05-01T07:58:51.992Z,66.45
2019-05-01T08:01:26.977Z,65.87
2019-05-01T08:03:56.483Z,66.82
2019-05-01T08:06:26.423Z,66.20
2019-05-01T08:08:55.862Z,65.21
2019-05-01T08:11:25.387Z,64.09
2019-05-01T08:14:01.507Z,64.49
2019-05-01T08:16:26.004Z,64.34
2019-05-01T08:18:59.160Z,64.25
2019-05-01T08:21:30.057Z,65.15
2019-05-01T08:23:59.486Z,65.15
2019-05-01T08:26:29.017Z,65.03
2019-05-01T08:29:06.575Z,64.53
2019-05-01T08:31:52.186Z,63.61
2019-05-01T08:34:33.611Z,63.03
2019-05-01T08:37:03.061Z,63.00
2019-05-01T08:39:32.492Z,62.74
2019-05-01T08:42:03.006Z,62.48
2019-05-01T08:44:34.708Z,62.22
2019-05-01T08:47:25.804Z,61.81
2019-05-01T08:49:55.154Z,60.67
2019-05-01T08:52:26.329Z,60.43
2019-05-01T08:54:55.833Z,62.30
2019-05-01T08:57:29.266Z,61.22
2019-05-01T09:00:00.272Z,61.02
2019-05-01T09:02:28.155Z,61.16
2019-05-01T09:05:02.597Z,60.91
2019-05-01T09:07:28.826Z,60.36
2019-05-01T09:09:58.332Z,60.07
2019-05-01T09:12:27.811Z,59.65
2019-05-01T09:14:57.248Z,60.18
2019-05-01T09:17:26.701Z,58.50
2019-05-01T09:19:56.152Z,58.05
2019-05-01T09:22:27.372Z,58.21
2019-05-01T09:25:00.047Z,58.38
2019-05-01T09:27:31.175Z,58.31
2019-05-01T09:30:21.991Z,58.40
2019-05-01T09:32:54.623Z,58.84
2019-05-01T09:35:23.025Z,58.25
2019-05-01T09:37:52.615Z,57.22
2019-05-01T09:40:25.697Z,56.04
2019-05-01T09:42:59.440Z,57.64
2019-05-01T09:45:26.384Z,57.41
2019-05-01T09:47:58.668Z,56.39
2019-05-01T09:50:30.447Z,56.03
2019-05-01T09:53:07.196Z,56.66
2019-05-01T09:55:38.340Z,56.80
2019-05-01T09:58:08.015Z,55.95
2019-05-01T10:00:37.693Z,57.07
2019-05-01T10:03:07.343Z,58.10
2019-05-01T10:05:37.969Z,57.79
2019-05-01T10:08:08.010Z,57.58
2019-05-01T10:10:37.437Z,55.18
2019-05-01T10:13:07.953Z,55.74
2019-05-01T10:15:37.520Z,54.80
2019-05-01T10:18:09.083Z,54.40
2019-05-01T10:20:45.701Z,53.44
2019-05-01T10:23:16.612Z,54.04
2019-05-01T10:25:49.754Z,52.89
2019-05-01T10:28:20.972Z,53.54
2019-05-01T10:31:11.868Z,52.97
2019-05-01T10:33:50.312Z,52.76
2019-05-01T10:36:25.238Z,53.13
2019-05-01T10:38:54.790Z,52.30
2019-05-01T10:41:27.272Z,51.97
2019-05-01T10:43:56.833Z,52.73
2019-05-01T10:46:26.286Z,52.43
2019-05-01T10:48:57.415Z,51.07
2019-05-01T10:51:28.640Z,52.85
2019-05-01T10:54:00.565Z,51.95
2019-05-01T10:56:30.159Z,52.57
2019-05-01T10:58:59.735Z,51.79
2019-05-01T11:01:31.056Z,50.67
2019-05-01T11:04:00.575Z,50.36
2019-05-01T11:06:30.145Z,50.55
2019-05-01T11:08:59.610Z,51.57
2019-05-01T11:11:29.136Z,50.63
2019-05-01T11:13:58.662Z,50.98
2019-05-01T11:16:28.124Z,50.36
2019-05-01T11:18:57.629Z,49.37
2019-05-01T11:21:30.217Z,49.55
2019-05-01T11:23:59.640Z,50.16
2019-05-01T11:26:29.163Z,50.82
2019-05-01T11:28:58.658Z,51.29
2019-05-01T11:31:48.871Z,51.11
2019-05-01T11:34:29.281Z,50.06
2019-05-01T11:37:16.660Z,48.75
2019-05-01T11:39:59.954Z,50.36
2019-05-01T11:42:29.543Z,50.74
2019-05-01T11:45:00.583Z,51.52
2019-05-01T11:47:30.035Z,50.65
2019-05-01T11:49:59.471Z,51.12
2019-05-01T11:52:29.109Z,51.37
2019-05-01T11:54:58.549Z,50.15
2019-05-01T11:57:28.008Z,49.76
2019-05-01T11:59:57.525Z,48.84
2019-05-01T12:02:27.705Z,48.97
2019-05-01T12:04:57.198Z,48.76
2019-05-01T12:07:26.655Z,48.12
2019-05-01T12:09:56.161Z,48.77
2019-05-01T12:12:27.272Z,48.17
2019-05-01T12:14:56.703Z,48.82
2019-05-01T12:17:28.944Z,49.34
2019-05-01T12:19:58.373Z,48.89
2019-05-01T12:22:27.915Z,48.71
2019-05-01T12:24:58.408Z,48.81
2019-05-01T12:27:27.842Z,48.35
2019-05-01T12:29:57.310Z,49.22
2019-05-01T12:32:26.762Z,48.73
2019-05-01T12:34:56.209Z,47.75
2019-05-01T12:37:27.300Z,48.89
2019-05-01T12:39:56.736Z,47.38
2019-05-01T12:42:27.915Z,46.68
2019-05-01T12:44:57.441Z,45.62
2019-05-01T12:47:40.716Z,47.37
2019-05-01T12:50:10.580Z,47.52
2019-05-01T12:52:44.634Z,48.35
2019-05-01T12:55:31.232Z,49.22
2019-05-01T12:58:00.830Z,46.40
2019-05-01T13:00:55.794Z,46.58
2019-05-01T13:03:25.253Z,46.88
2019-05-01T13:05:54.709Z,48.81
2019-05-01T13:08:26.566Z,48.06
2019-05-01T13:10:56.346Z,48.74
2019-05-01T13:13:25.856Z,49.13
2019-05-01T13:15:55.957Z,47.96
2019-05-01T13:18:27.637Z,46.82
2019-05-01T13:20:57.097Z,45.50
2019-05-01T13:23:26.596Z,48.04
2019-05-01T13:25:57.764Z,48.97
2019-05-01T13:28:34.514Z,46.93
2019-05-01T13:31:11.690Z,49.37
2019-05-01T13:33:43.987Z,48.39
2019-05-01T13:36:13.716Z,48.37
2019-05-01T13:38:43.286Z,49.31
2019-05-01T13:41:14.250Z,49.38
2019-05-01T13:43:44.211Z,49.30
2019-05-01T13:46:13.675Z,48.53
2019-05-01T13:48:43.165Z,48.21
2019-05-01T13:51:12.612Z,48.36
2019-05-01T13:53:42.061Z,49.46
2019-05-01T13:56:11.688Z,48.72
2019-05-01T13:58:42.667Z,49.78
2019-05-01T14:01:12.689Z,49.66
2019-05-01T14:03:42.971Z,49.39
2019-05-01T14:06:12.493Z,47.19
2019-05-01T14:08:42.150Z,48.51
2019-05-01T14:11:11.609Z,50.33
2019-05-01T14:13:41.255Z,49.57
2019-05-01T14:16:10.844Z,49.57
2019-05-01T14:18:42.709Z,50.66
2019-05-01T14:21:20.029Z,49.40
2019-05-01T14:23:51.096Z,48.82
2019-05-01T14:26:20.547Z,49.21
2019-05-01T14:28:49.987Z,49.90
2019-05-01T14:31:19.420Z,48.34
2019-05-01T14:33:49.933Z,49.17
2019-05-01T14:36:20.964Z,48.93
2019-05-01T14:38:50.430Z,49.23
2019-05-01T14:41:22.683Z,47.72
2019-05-01T14:43:52.135Z,48.58
2019-05-01T14:46:21.563Z,48.51
2019-05-01T14:48:51.019Z,48.42
2019-05-01T14:51:21.824Z,48.83
2019-05-01T14:53:51.477Z,48.74
2019-05-01T14:56:20.986Z,50.66
2019-05-01T14:58:50.506Z,51.23
2019-05-01T15:01:20.057Z,48.42
2019-05-01T15:03:51.602Z,48.91
2019-05-01T15:06:21.183Z,49.45
2019-05-01T15:08:50.648Z,48.86
2019-05-01T15:11:22.799Z,48.50
2019-05-01T15:13:54.040Z,48.38
2019-05-01T15:16:41.051Z,49.00
2019-05-01T15:19:18.122Z,48.70
2019-05-01T15:21:50.405Z,47.66
2019-05-01T15:24:19.831Z,49.07
2019-05-01T15:26:51.386Z,49.52
2019-05-01T15:29:20.491Z,48.84
2019-05-01T15:31:49.930Z,50.25
2019-05-01T15:34:19.396Z,50.36
2019-05-01T15:36:48.831Z,50.48
2019-05-01T15:39:19.916Z,50.00
2019-05-01T15:42:06.386Z,49.68
2019-05-01T15:44:40.304Z,50.34
2019-05-01T15:47:09.826Z,50.40
2019-05-01T15:49:39.334Z,50.85
2019-05-01T15:52:08.788Z,51.03
2019-05-01T15:54:38.301Z,50.22
2019-05-01T15:57:07.740Z,50.26
2019-05-01T15:59:37.186Z,50.98
2019-05-01T16:02:09.182Z,50.88
2019-05-01T16:04:40.254Z,51.08
2019-05-01T16:07:09.704Z,51.29
2019-05-01T16:09:40.845Z,51.77
2019-05-01T16:12:27.055Z,51.74
2019-05-01T16:14:56.595Z,52.15
2019-05-01T16:17:26.397Z,52.79
2019-05-01T16:19:58.395Z,51.89
2019-05-01T16:22:27.841Z,51.60
2019-05-01T16:24:57.390Z,53.32
2019-05-01T16:27:26.818Z,52.51
2019-05-01T16:29:56.278Z,53.29
2019-05-01T16:32:25.809Z,53.64
2019-05-01T16:34:55.319Z,53.33
2019-05-01T16:37:24.848Z,53.80
2019-05-01T16:39:58.967Z,54.18
2019-05-01T16:42:30.127Z,54.21
2019-05-01T16:44:59.857Z,53.65
2019-05-01T16:47:29.286Z,54.12
2019-05-01T16:49:58.824Z,54.42
2019-05-01T16:52:29.838Z,53.91
2019-05-01T16:55:00.539Z,54.33
2019-05-01T16:57:31.539Z,54.36
2019-05-01T17:00:02.624Z,53.83
2019-05-01T17:02:47.763Z,54.03
2019-05-01T17:05:19.439Z,54.55
2019-05-01T17:08:07.036Z,54.56
2019-05-01T17:10:47.274Z,54.40
2019-05-01T17:13:17.273Z,54.85
2019-05-01T17:15:48.336Z,55.47
2019-05-01T17:18:18.134Z,55.83
2019-05-01T17:20:50.312Z,55.54
2019-05-01T17:23:19.994Z,55.80
2019-05-01T17:25:51.883Z,55.87
2019-05-01T17:28:21.454Z,56.15
2019-05-01T17:30:53.000Z,56.79
2019-05-01T17:33:22.457Z,57.04
2019-05-01T17:35:55.352Z,57.29
2019-05-01T17:38:27.740Z,57.08
2019-05-01T17:40:58.792Z,56.92
2019-05-01T17:43:29.943Z,57.49
2019-05-01T17:45:59.379Z,58.08
2019-05-01T17:48:34.894Z,58.10
2019-05-01T17:51:04.582Z,58.07
2019-05-01T17:53:34.041Z,58.11
2019-05-01T17:56:09.976Z,58.47
2019-05-01T17:58:40.382Z,58.71
2019-05-01T18:01:33.098Z,59.00
2019-05-01T18:04:00.902Z,58.71
2019-05-01T18:06:31.978Z,59.25
2019-05-01T18:09:03.282Z,59.41
2019-05-01T18:11:34.068Z,59.32
2019-05-01T18:14:05.710Z,59.51
2019-05-01T18:16:34.973Z,60.29
2019-05-01T18:19:09.836Z,60.47
2019-05-01T18:21:38.680Z,60.72
2019-05-01T18:24:23.038Z,61.26
2019-05-01T18:27:00.393Z,61.97
2019-05-01T18:29:39.759Z,62.37
2019-05-01T18:32:10.232Z,62.69
2019-05-01T18:34:39.658Z,63.29
2019-05-01T18:37:12.365Z,63.11
2019-05-01T18:39:46.507Z,63.42
2019-05-01T18:42:17.526Z,63.79
2019-05-01T18:44:48.749Z,64.33
2019-05-01T18:47:18.426Z,64.05
2019-05-01T18:49:48.071Z,63.94
2019-05-01T18:52:20.300Z,64.29
2019-05-01T18:54:49.750Z,65.48
2019-05-01T18:57:19.279Z,64.80
2019-05-01T18:59:48.881Z,64.98
2019-05-01T19:02:20.414Z,65.31
2019-05-01T19:04:49.629Z,65.82
2019-05-01T19:07:19.545Z,66.24
2019-05-01T19:09:49.218Z,66.34
2019-05-01T19:12:20.209Z,66.46
2019-05-01T19:14:49.734Z,66.03
2019-05-01T19:17:19.171Z,66.22
2019-05-01T19:19:52.053Z,66.49
2019-05-01T19:22:21.739Z,66.66
2019-05-01T19:24:51.272Z,66.62
2019-05-01T19:27:22.772Z,67.40
2019-05-01T19:29:52.131Z,67.27
2019-05-01T19:32:22.079Z,67.27
2019-05-01T19:34:54.630Z,67.21
2019-05-01T19:37:27.489Z,67.43
2019-05-01T19:39:55.549Z,67.50
2019-05-01T19:42:25.950Z,67.59
2019-05-01T19:44:56.259Z,67.62
2019-05-01T19:47:26.581Z,67.92
2019-05-01T19:49:56.153Z,67.60
2019-05-01T19:52:25.677Z,68.45
2019-05-01T19:54:55.267Z,68.45
2019-05-01T19:57:24.692Z,68.83
2019-05-01T19:59:54.123Z,68.83
2019-05-01T20:02:24.065Z,68.50
2019-05-01T20:04:53.642Z,68.70
2019-05-01T20:07:23.168Z,68.58
2019-05-01T20:09:56.998Z,68.89
2019-05-01T20:12:24.025Z,69.41
2019-05-01T20:14:53.472Z,69.30
2019-05-01T20:17:22.907Z,69.15
2019-05-01T20:19:52.437Z,68.88
2019-05-01T20:22:21.866Z,69.37
2019-05-01T20:24:51.536Z,68.90
2019-05-01T20:27:21.224Z,69.05
2019-05-01T20:29:50.778Z,69.20
2019-05-01T20:32:25.690Z,69.52
2019-05-01T20:34:52.690Z,69.72
2019-05-01T20:37:22.584Z,69.55
2019-05-01T20:39:52.102Z,69.61
2019-05-01T20:42:21.535Z,69.69
2019-05-01T20:45:03.948Z,69.91
2019-05-01T20:47:34.427Z,69.91
2019-05-01T20:49:53.513Z,70.23
2019-05-01T20:52:22.953Z,70.11
2019-05-01T20:54:52.396Z,70.67
2019-05-01T20:57:32.594Z,70.28
2019-05-01T21:00:02.120Z,70.75
2019-05-01T21:02:33.225Z,70.64
2019-05-01T21:05:19.425Z,70.86
2019-05-01T21:08:05.393Z,70.67
2019-05-01T21:10:49.810Z,70.81
2019-05-01T21:13:07.770Z,70.58
2019-05-01T21:15:37.427Z,70.92
2019-05-01T21:18:07.816Z,70.96
2019-05-01T21:20:37.271Z,70.66
2019-05-01T21:23:10.577Z,70.98
2019-05-01T21:25:37.850Z,70.84
2019-05-01T21:28:07.609Z,70.94
2019-05-01T21:30:38.666Z,71.52
2019-05-01T21:33:11.389Z,71.54
2019-05-01T21:35:40.943Z,71.79
2019-05-01T21:38:12.195Z,72.12
2019-05-01T21:40:43.738Z,71.78
2019-05-01T21:43:13.620Z,72.31
2019-05-01T21:45:43.457Z,72.35
2019-05-01T21:48:13.448Z,72.44
2019-05-01T21:50:43.872Z,72.66
2019-05-01T21:53:16.348Z,72.79
2019-05-01T21:55:45.796Z,73.02
2019-05-01T21:58:21.050Z,73.03
2019-05-01T22:00:50.507Z,73.34
2019-05-01T22:03:21.513Z,73.15
2019-05-01T22:05:51.582Z,72.80
2019-05-01T22:08:21.174Z,73.73
2019-05-01T22:10:52.474Z,73.41
2019-05-01T22:13:24.370Z,73.68
2019-05-01T22:16:13.211Z,73.87
2019-05-01T22:18:46.996Z,73.52
2019-05-01T22:21:23.817Z,74.06
2019-05-01T22:23:57.719Z,74.10
2019-05-01T22:26:28.853Z,74.03
2019-05-01T22:28:59.938Z,74.02
2019-05-01T22:31:34.119Z,74.07
2019-05-01T22:34:05.268Z,73.94
2019-05-01T22:36:34.689Z,74.25
2019-05-01T22:39:06.104Z,74.20
2019-05-01T22:41:38.266Z,74.20
2019-05-01T22:44:07.890Z,74.61
2019-05-01T22:46:39.019Z,74.77
2019-05-01T22:49:08.460Z,74.61
2019-05-01T22:51:37.940Z,75.01
2019-05-01T22:54:07.388Z,74.88
2019-05-01T22:56:36.902Z,74.87
2019-05-01T22:59:07.906Z,74.91
2019-05-01T23:01:37.435Z,74.64
2019-05-01T23:04:07.709Z,74.45
2019-05-01T23:06:41.738Z,74.53
2019-05-01T23:09:11.221Z,74.77
2019-05-01T23:11:42.372Z,75.13
2019-05-01T23:14:13.471Z,74.83
2019-05-01T23:16:44.693Z,75.39
2019-05-01T23:19:14.113Z,75.23
2019-05-01T23:21:45.877Z,75.22
2019-05-01T23:24:15.417Z,75.38
2019-05-01T23:26:48.102Z,75.26
2019-05-01T23:29:16.047Z,75.13
2019-05-01T23:31:45.777Z,75.45
2019-05-01T23:34:15.185Z,75.68
2019-05-01T23:36:44.628Z,75.82
2019-05-01T23:39:14.768Z,76.27
2019-05-01T23:41:46.761Z,76.20
2019-05-01T23:44:15.399Z,76.16
2019-05-01T23:46:47.904Z,76.31
2019-05-01T23:49:17.396Z,76.36
2019-05-01T23:51:46.848Z,76.44
2019-05-01T23:54:16.297Z,76.79
2019-05-01T23:56:45.737Z,76.90
2019-05-01T23:59:19.936Z,76.92
